Aviation Digital Data Service (ADDS)

Output produced by METARs form (0139 UTC 23 November 2017)
found at http://www.aviationweather.gov/adds/metars/
 
KMSS 230053Z AUTO 29007KT 10SM FEW027 M03/M07 A3016 RMK AO2 SLP218 T10331072
KMSS 222353Z AUTO 30010KT 10SM CLR M02/M07 A3014 RMK AO2 SLP212 T10221072 10011 21028 51019
KMSS 222253Z AUTO 29009KT 10SM FEW049 M02/M07 A3012 RMK AO2 SLP206 T10171067
KMSS 222337Z 2300/2324 29009KT P6SM SCT045 
     FM231000 23005KT P6SM SCT120 
     FM231800 22012KT P6SM BKN100